Time;durP1;ratioP1;P1;durP2;ratioP2;P2;SDS_P1;SDS_P2;PMS_P1;PMS_P2;Temp;Humidity;BMP_temperature;BMP_pressure;BME280_temperature;BME280_humidity;BME280_pressure;Samples;Min_cycle;Max_cycle;Signal;HPM_P1;HPM_P2
2022/05/04 00:00:44;;;;;;;;;;;;;;;;;;5105191;27;19997;-76
2022/05/04 00:03:11;;;;;;;;;;;;;;;;;;5110183;27;20331;-75
2022/05/04 00:05:37;;;;;;;;;;;;;;;;;;5086673;27;19916;-75
2022/05/04 00:08:03;;;;;;;;;;;;;;;;;;5101127;28;19994;-75
2022/05/04 00:10:30;;;;;;;;;;;;;;;;;;5107881;27;19923;-75
2022/05/04 00:12:56;;;;;;;;;;;;;;;;;;5109239;27;19915;-76
2022/05/04 00:15:22;;;;;;;;;;;;;;;;;;5102405;27;19922;-75
2022/05/04 00:17:48;;;;;;;;;;;;;;;;;;5083459;27;19955;-76
2022/05/04 00:20:14;;;;;;;;;;;;;;;;;;5108235;27;19915;-75
2022/05/04 00:22:39;;;;;;;;;;;;;;;;;;5125623;27;19919;-75
2022/05/04 00:25:05;;;;;;;;;;;;;;;;;;5104160;28;19999;-75
2022/05/04 00:27:33;;;;;;;;;;;;;;;;;;5104242;28;19923;-76
2022/05/04 00:29:58;;;;;;;;;;;;;;;;;;5104419;28;19919;-76
2022/05/04 00:32:24;;;;;;;;;;;;;;;;;;5104566;28;19919;-74
2022/05/04 00:34:50;;;;;;;;;;;;;;;;;;5126197;28;19922;-75
2022/05/04 00:37:16;;;;;;;;;;;;;;;;;;5120517;28;19915;-75
2022/05/04 00:39:42;;;;;;;;;;;;;;;;;;5098557;28;19915;-75
2022/05/04 00:42:08;;;;;;;;;;;;;;;;;;5107516;28;19915;-74
2022/05/04 00:44:34;;;;;;;;;;;;;;;;;;5107644;27;19965;-74
2022/05/04 00:47:00;;;;;;;;;;;;;;;;;;5108250;27;19957;-75
2022/05/04 00:49:26;;;;;;;;;;;;;;;;;;5112144;27;19927;-77
2022/05/04 00:51:52;;;;;;;;;;;;;;;;;;5111014;27;19922;-76
2022/05/04 00:54:18;;;;;;;;;;;;;;;;;;5086707;27;19919;-75
2022/05/04 00:56:44;;;;;;;;;;;;;;;;;;5108004;27;19915;-75
2022/05/04 00:59:10;;;;;;;;;;;;;;;;;;5109236;27;19915;-75
2022/05/04 01:01:36;;;;;;;;;;;;;;;;;;5109698;27;19958;-75
2022/05/04 01:04:02;;;;;;;;;;;;;;;;;;5126543;27;19922;-76
2022/05/04 01:06:28;;;;;;;;;;;;;;;;;;5124240;27;19961;-75
2022/05/04 01:08:54;;;;;;;;;;;;;;;;;;5095259;27;19919;-75
2022/05/04 01:11:20;;;;;;;;;;;;;;;;;;5108382;27;19962;-78
2022/05/04 01:13:46;;;;;;;;;;;;;;;;;;5115039;27;19976;-76
2022/05/04 01:16:12;;;;;;;;;;;;;;;;;;5107239;27;19958;-75
2022/05/04 01:18:38;;;;;;;;;;;;;;;;;;5092681;27;19927;-75
2022/05/04 01:21:03;;;;;;;;;;;;;;;;;;5128773;27;19915;-75
2022/05/04 01:23:29;;;;;;;;;;;;;;;;;;5108516;27;19946;-76
2022/05/04 01:25:55;;;;;;;;;;;;;;;;;;5092342;27;19984;-74
2022/05/04 01:28:21;;;;;;;;;;;;;;;;;;5106836;27;20018;-74
2022/05/04 01:30:47;;;;;;;;;;;;;;;;;;5130057;27;19915;-74
2022/05/04 01:33:13;;;;;;;;;;;;;;;;;;5126175;27;19974;-76
2022/05/04 01:35:39;;;;;;;;;;;;;;;;;;5129494;27;19978;-75
2022/05/04 01:38:05;;;;;;;;;;;;;;;;;;5125999;27;20010;-75
2022/05/04 01:40:31;;;;;;;;;;;;;;;;;;5126854;27;20406;-74
2022/05/04 01:42:57;;;;;;;;;;;;;;;;;;5106389;27;20334;-74
2022/05/04 01:45:23;;;;;;;;;;;;;;;;;;5105681;27;20330;-75
2022/05/04 01:47:49;;;;;;;;;;;;;;;;;;5108414;27;20324;-75
2022/05/04 01:50:15;;;;;;;;;;;;;;;;;;5107384;27;19975;-76
2022/05/04 01:52:41;;;;;;;;;;;;;;;;;;5110891;27;19924;-75
2022/05/04 01:55:07;;;;;;;;;;;;;;;;;;5105282;28;19928;-76
2022/05/04 01:57:33;;;;;;;;;;;;;;;;;;5124360;27;19915;-76
2022/05/04 01:59:59;;;;;;;;;;;;;;;;;;5108826;27;19957;-75
2022/05/04 02:02:25;;;;;;;;;;;;;;;;;;5109360;27;19975;-75
2022/05/04 02:04:51;;;;;;;;;;;;;;;;;;5127643;27;20001;-75
2022/05/04 02:07:17;;;;;;;;;;;;;;;;;;5123152;27;19915;-75
2022/05/04 02:09:43;;;;;;;;;;;;;;;;;;5111619;27;19915;-74
2022/05/04 02:12:09;;;;;;;;;;;;;;;;;;5109899;27;20366;-74
2022/05/04 02:14:34;;;;;;;;;;;;;;;;;;5109885;27;19927;-75
2022/05/04 02:17:00;;;;;;;;;;;;;;;;;;5105044;27;21252;-75
2022/05/04 02:19:26;;;;;;;;;;;;;;;;;;5123966;27;19985;-74
2022/05/04 02:21:52;;;;;;;;;;;;;;;;;;5128188;27;19927;-74
2022/05/04 02:24:18;;;;;;;;;;;;;;;;;;5107069;27;19927;-75
2022/05/04 02:26:44;;;;;;;;;;;;;;;;;;5126567;27;20010;-74
2022/05/04 02:29:10;;;;;;;;;;;;;;;;;;5125300;27;19949;-74
2022/05/04 02:31:36;;;;;;;;;;;;;;;;;;5124809;27;19927;-74
2022/05/04 02:34:02;;;;;;;;;;;;;;;;;;5126895;27;19915;-74
2022/05/04 02:39:12;;;;;;;;;;;;;;;;;;5106324;27;19922;-75
2022/05/04 02:41:38;;;;;;;;;;;;;;;;;;5108216;27;19927;-75
2022/05/04 02:44:04;;;;;;;;;;;;;;;;;;5109108;27;19919;-75
2022/05/04 02:46:30;;;;;;;;;;;;;;;;;;5106810;27;19923;-75
2022/05/04 02:48:56;;;;;;;;;;;;;;;;;;5122721;27;19916;-75
2022/05/04 02:51:22;;;;;;;;;;;;;;;;;;5124415;27;19927;-77
2022/05/04 02:53:48;;;;;;;;;;;;;;;;;;5123212;27;20030;-75
2022/05/04 02:56:15;;;;;;;;;;;;;;;;;;5107993;27;19919;-75
2022/05/04 02:58:41;;;;;;;;;;;;;;;;;;5125218;27;20013;-75
2022/05/04 03:02:26;;;;;;;;;;;;;;;;;;5124832;27;20010;-76
2022/05/04 03:03:53;;;;;;;;;;;;;;;;;;5104908;27;19954;-75
2022/05/04 03:06:19;;;;;;;;;;;;;;;;;;5089426;27;19963;-75
2022/05/04 03:08:45;;;;;;;;;;;;;;;;;;5125798;27;19989;-75
2022/05/04 03:13:56;;;;;;;;;;;;;;;;;;5113153;27;20047;-76
2022/05/04 03:16:22;;;;;;;;;;;;;;;;;;5104545;27;19969;-75
2022/05/04 03:18:48;;;;;;;;;;;;;;;;;;5124577;27;19916;-75
2022/05/04 03:21:13;;;;;;;;;;;;;;;;;;5108175;27;19923;-75
2022/05/04 03:23:39;;;;;;;;;;;;;;;;;;5123909;27;19926;-75
2022/05/04 03:26:05;;;;;;;;;;;;;;;;;;5125407;27;19958;-75
2022/05/04 03:28:32;;;;;;;;;;;;;;;;;;5105573;27;19928;-75
2022/05/04 03:30:58;;;;;;;;;;;;;;;;;;5107912;27;19922;-75
2022/05/04 03:33:24;;;;;;;;;;;;;;;;;;5105539;27;19919;-75
2022/05/04 03:35:50;;;;;;;;;;;;;;;;;;5121845;27;20010;-76
2022/05/04 03:38:16;;;;;;;;;;;;;;;;;;5123029;27;20284;-76
2022/05/04 03:40:42;;;;;;;;;;;;;;;;;;5106608;27;19915;-75
2022/05/04 03:43:08;;;;;;;;;;;;;;;;;;5108038;27;20362;-75
2022/05/04 03:45:34;;;;;;;;;;;;;;;;;;5105265;27;20617;-76
2022/05/04 03:48:00;;;;;;;;;;;;;;;;;;5103039;27;20254;-75
2022/05/04 03:50:26;;;;;;;;;;;;;;;;;;5104881;27;20318;-76
2022/05/04 03:52:52;;;;;;;;;;;;;;;;;;5123835;27;20308;-76
2022/05/04 03:55:18;;;;;;;;;;;;;;;;;;5124496;27;20365;-76
2022/05/04 03:57:43;;;;;;;;;;;;;;;;;;5102710;27;19984;-76
2022/05/04 04:00:09;;;;;;;;;;;;;;;;;;5105306;27;19915;-75
2022/05/04 04:02:35;;;;;;;;;;;;;;;;;;5106004;27;19919;-76
2022/05/04 04:05:01;;;;;;;;;;;;;;;;;;5105344;27;19954;-75
2022/05/04 04:07:27;;;;;;;;;;;;;;;;;;5102674;27;19972;-75
2022/05/04 04:09:53;;;;;;;;;;;;;;;;;;5105299;27;19918;-76
2022/05/04 04:12:19;;;;;;;;;;;;;;;;;;5125819;27;20006;-76
2022/05/04 04:14:45;;;;;;;;;;;;;;;;;;5107936;27;20316;-75
2022/05/04 04:17:11;;;;;;;;;;;;;;;;;;5087064;27;19949;-77
2022/05/04 04:19:37;;;;;;;;;;;;;;;;;;5085729;28;19915;-75
2022/05/04 04:22:03;;;;;;;;;;;;;;;;;;5104369;28;19915;-75
2022/05/04 04:24:29;;;;;;;;;;;;;;;;;;5124417;27;19998;-75
2022/05/04 04:26:55;;;;;;;;;;;;;;;;;;5105253;28;19930;-75
2022/05/04 04:29:21;;;;;;;;;;;;;;;;;;5099795;28;19976;-76
2022/05/04 04:31:47;;;;;;;;;;;;;;;;;;5104454;28;19923;-76
2022/05/04 04:34:13;;;;;;;;;;;;;;;;;;5108170;28;20259;-76
2022/05/04 04:36:39;;;;;;;;;;;;;;;;;;5108791;28;19984;-76
2022/05/04 04:39:05;;;;;;;;;;;;;;;;;;5085803;28;19928;-74
2022/05/04 04:41:31;;;;;;;;;;;;;;;;;;5084643;28;19928;-73
2022/05/04 04:43:57;;;;;;;;;;;;;;;;;;5111484;28;19915;-76
2022/05/04 04:46:23;;;;;;;;;;;;;;;;;;5108330;28;19915;-76
2022/05/04 04:48:50;;;;;;;;;;;;;;;;;;5108823;28;19955;-76
2022/05/04 04:51:16;;;;;;;;;;;;;;;;;;5119557;28;19973;-78
2022/05/04 04:53:42;;;;;;;;;;;;;;;;;;5104457;28;19915;-77
2022/05/04 04:56:08;;;;;;;;;;;;;;;;;;5104631;28;19915;-78
2022/05/04 04:58:34;;;;;;;;;;;;;;;;;;5103155;28;19916;-78
2022/05/04 05:01:00;;;;;;;;;;;;;;;;;;5084949;28;19933;-75
2022/05/04 05:03:26;;;;;;;;;;;;;;;;;;5120898;28;19967;-76
2022/05/04 05:05:52;;;;;;;;;;;;;;;;;;5109747;28;19940;-74
2022/05/04 05:08:18;;;;;;;;;;;;;;;;;;5123770;28;19923;-75
2022/05/04 05:10:44;;;;;;;;;;;;;;;;;;5094890;28;19959;-76
2022/05/04 05:13:10;;;;;;;;;;;;;;;;;;5112484;28;19919;-75
2022/05/04 05:18:20;;;;;;;;;;;;;;;;;;5108113;28;20269;-78
2022/05/04 05:20:46;;;;;;;;;;;;;;;;;;5112640;28;19919;-77
2022/05/04 05:23:13;;;;;;;;;;;;;;;;;;5083412;28;20385;-82
2022/05/04 05:25:39;;;;;;;;;;;;;;;;;;5104392;28;20274;-76
2022/05/04 05:28:05;;;;;;;;;;;;;;;;;;5088004;28;19919;-76
2022/05/04 05:30:31;;;;;;;;;;;;;;;;;;5105659;27;20056;-76
2022/05/04 05:32:57;;;;;;;;;;;;;;;;;;5105193;27;19928;-79
2022/05/04 05:35:23;;;;;;;;;;;;;;;;;;5109115;27;19916;-78
2022/05/04 05:37:49;;;;;;;;;;;;;;;;;;5107290;27;20048;-78
2022/05/04 05:40:15;;;;;;;;;;;;;;;;;;5093555;27;19923;-79
2022/05/04 05:42:41;;;;;;;;;;;;;;;;;;5104442;27;19922;-79
2022/05/04 05:45:07;;;;;;;;;;;;;;;;;;5107047;27;19963;-77
2022/05/04 05:47:33;;;;;;;;;;;;;;;;;;5106649;27;19920;-78
2022/05/04 05:49:59;;;;;;;;;;;;;;;;;;5091853;27;19920;-80
2022/05/04 05:52:25;;;;;;;;;;;;;;;;;;5101384;27;19923;-75
2022/05/04 05:54:51;;;;;;;;;;;;;;;;;;5131290;27;19915;-81
2022/05/04 05:57:17;;;;;;;;;;;;;;;;;;5100155;27;19987;-81
2022/05/04 05:59:43;;;;;;;;;;;;;;;;;;5098082;27;19958;-77
2022/05/04 06:02:08;;;;;;;;;;;;;;;;;;5097462;27;19915;-78
2022/05/04 06:04:34;;;;;;;;;;;;;;;;;;5095843;27;19915;-78
2022/05/04 06:07:00;;;;;;;;;;;;;;;;;;5097439;27;19984;-78
2022/05/04 06:09:26;;;;;;;;;;;;;;;;;;5115438;27;19954;-78
2022/05/04 06:11:52;;;;;;;;;;;;;;;;;;5109395;28;19916;-78
2022/05/04 06:14:19;;;;;;;;;;;;;;;;;;5110872;28;19931;-79
2022/05/04 06:16:45;;;;;;;;;;;;;;;;;;5112043;28;19922;-78
2022/05/04 06:19:10;;;;;;;;;;;;;;;;;;5112054;28;19951;-78
2022/05/04 06:21:36;;;;;;;;;;;;;;;;;;5094897;28;19955;-78
2022/05/04 06:24:02;;;;;;;;;;;;;;;;;;5093163;28;19915;-77
2022/05/04 06:26:28;;;;;;;;;;;;;;;;;;5110783;27;19922;-77
2022/05/04 06:28:54;;;;;;;;;;;;;;;;;;5110628;28;19916;-77
2022/05/04 06:34:10;;;;;;;;;;;;;;;;;;5110206;28;20391;-77
2022/05/04 06:36:36;;;;;;;;;;;;;;;;;;5111949;28;19916;-77
2022/05/04 06:39:02;;;;;;;;;;;;;;;;;;5109872;28;20060;-78
2022/05/04 06:41:28;;;;;;;;;;;;;;;;;;5111187;28;19926;-77
2022/05/04 06:43:54;;;;;;;;;;;;;;;;;;5110536;28;19962;-77
2022/05/04 06:46:20;;;;;;;;;;;;;;;;;;5109687;28;20266;-78
2022/05/04 06:48:46;;;;;;;;;;;;;;;;;;5112350;28;19919;-78
2022/05/04 06:51:12;;;;;;;;;;;;;;;;;;5112007;28;19927;-78
2022/05/04 06:53:38;;;;;;;;;;;;;;;;;;5109334;28;19923;-79
2022/05/04 06:56:04;;;;;;;;;;;;;;;;;;5109927;28;19922;-79
2022/05/04 06:58:29;;;;;;;;;;;;;;;;;;5108162;28;19915;-79
2022/05/04 07:00:55;;;;;;;;;;;;;;;;;;5105385;28;19972;-79
2022/05/04 07:03:21;;;;;;;;;;;;;;;;;;5110631;28;19916;-78
2022/05/04 07:05:47;;;;;;;;;;;;;;;;;;5080168;28;19937;-77
2022/05/04 07:08:13;;;;;;;;;;;;;;;;;;5108824;28;19926;-78
2022/05/04 07:10:39;;;;;;;;;;;;;;;;;;5109170;28;19928;-79
2022/05/04 07:13:06;;;;;;;;;;;;;;;;;;5110256;28;19965;-79
2022/05/04 07:15:32;;;;;;;;;;;;;;;;;;5092862;28;20458;-78
2022/05/04 07:17:58;;;;;;;;;;;;;;;;;;5093836;28;19919;-78
2022/05/04 07:20:24;;;;;;;;;;;;;;;;;;5106297;28;19923;-79
2022/05/04 07:22:50;;;;;;;;;;;;;;;;;;5110428;28;20284;-78
2022/05/04 07:25:16;;;;;;;;;;;;;;;;;;5109687;27;19965;-78
2022/05/04 07:27:42;;;;;;;;;;;;;;;;;;5109936;28;19916;-78
2022/05/04 07:30:08;;;;;;;;;;;;;;;;;;5110265;28;19937;-77
2022/05/04 07:32:34;;;;;;;;;;;;;;;;;;5091611;28;20404;-77
2022/05/04 07:35:00;;;;;;;;;;;;;;;;;;5105392;28;20343;-79
2022/05/04 07:37:26;;;;;;;;;;;;;;;;;;5091676;28;19958;-78
2022/05/04 07:42:39;;;;;;;;;;;;;;;;;;5108827;28;19922;-78
2022/05/04 07:45:06;;;;;;;;;;;;;;;;;;5110353;28;19919;-78
2022/05/04 07:47:32;;;;;;;;;;;;;;;;;;5110401;28;19927;-78
2022/05/04 07:49:58;;;;;;;;;;;;;;;;;;5090792;28;19926;-79
2022/05/04 07:52:24;;;;;;;;;;;;;;;;;;5107976;28;19916;-78
2022/05/04 07:54:50;;;;;;;;;;;;;;;;;;5108968;28;19949;-79
2022/05/04 07:57:16;;;;;;;;;;;;;;;;;;5092362;28;20370;-79
2022/05/04 07:59:42;;;;;;;;;;;;;;;;;;5107148;28;19928;-78
2022/05/04 08:04:53;;;;;;;;;;;;;;;;;;5107690;28;20014;-78
2022/05/04 08:07:19;;;;;;;;;;;;;;;;;;5109860;28;19970;-86
2022/05/04 08:09:45;;;;;;;;;;;;;;;;;;5089619;28;19922;-79
2022/05/04 08:12:12;;;;;;;;;;;;;;;;;;5093331;28;19916;-78
2022/05/04 08:14:39;;;;;;;;;;;;;;;;;;5092462;28;20404;-79
2022/05/04 08:17:05;;;;;;;;;;;;;;;;;;5109107;28;19916;-79
2022/05/04 08:19:31;;;;;;;;;;;;;;;;;;5108067;28;19927;-80
2022/05/04 08:21:57;;;;;;;;;;;;;;;;;;5092673;28;19922;-79
2022/05/04 08:24:23;;;;;;;;;;;;;;;;;;5109657;28;19935;-78
2022/05/04 08:26:48;;;;;;;;;;;;;;;;;;5093344;28;19969;-77
2022/05/04 08:29:14;;;;;;;;;;;;;;;;;;5110963;28;19915;-77
2022/05/04 08:31:40;;;;;;;;;;;;;;;;;;5109204;28;19969;-77
2022/05/04 08:34:06;;;;;;;;;;;;;;;;;;5106194;28;19922;-77
2022/05/04 08:36:32;;;;;;;;;;;;;;;;;;5110463;28;19920;-78
2022/05/04 08:38:58;;;;;;;;;;;;;;;;;;5110205;28;19915;-78
2022/05/04 08:41:24;;;;;;;;;;;;;;;;;;5108807;28;19927;-77
2022/05/04 08:43:50;;;;;;;;;;;;;;;;;;5108450;28;19916;-77
2022/05/04 08:46:16;;;;;;;;;;;;;;;;;;5109304;28;19919;-78
2022/05/04 08:48:42;;;;;;;;;;;;;;;;;;5104061;28;21831;-80
2022/05/04 08:51:09;;;;;;;;;;;;;;;;;;5110580;28;19920;-80
2022/05/04 08:53:36;;;;;;;;;;;;;;;;;;5089157;28;19920;-80
2022/05/04 08:56:02;;;;;;;;;;;;;;;;;;5090872;28;20259;-78
2022/05/04 08:58:28;;;;;;;;;;;;;;;;;;5106089;28;19916;-79
2022/05/04 09:00:54;;;;;;;;;;;;;;;;;;5107991;28;19946;-78
2022/05/04 09:03:21;;;;;;;;;;;;;;;;;;5090103;28;20006;-78
2022/05/04 09:05:47;;;;;;;;;;;;;;;;;;5093202;28;19916;-78
2022/05/04 09:08:13;;;;;;;;;;;;;;;;;;5113639;28;19942;-78
2022/05/04 09:10:39;;;;;;;;;;;;;;;;;;5110550;28;19915;-77
2022/05/04 09:13:05;;;;;;;;;;;;;;;;;;5106801;28;19922;-77
2022/05/04 09:15:31;;;;;;;;;;;;;;;;;;5106813;28;19928;-78
2022/05/04 09:17:57;;;;;;;;;;;;;;;;;;5106339;28;19945;-79
2022/05/04 09:23:08;;;;;;;;;;;;;;;;;;5110306;28;19954;-77
2022/05/04 09:25:33;;;;;;;;;;;;;;;;;;5109819;28;19915;-79
2022/05/04 09:27:59;;;;;;;;;;;;;;;;;;5106410;28;19924;-79
2022/05/04 09:30:25;;;;;;;;;;;;;;;;;;5109023;28;19974;-79
2022/05/04 09:32:51;;;;;;;;;;;;;;;;;;5105163;28;19923;-77
2022/05/04 09:35:17;;;;;;;;;;;;;;;;;;5107742;28;19916;-76
2022/05/04 09:45:58;;;;;;;;;;;;;;;;;;5110598;28;19923;-78
2022/05/04 09:48:23;;;;;;;;;;;;;;;;;;5107837;28;19923;-78
2022/05/04 09:50:49;;;;;;;;;;;;;;;;;;5108828;28;19931;-78
2022/05/04 09:53:15;;;;;;;;;;;;;;;;;;5109613;28;19924;-79
2022/05/04 09:55:43;;;;;;;;;;;;;;;;;;5108294;28;19922;-78
2022/05/04 09:58:10;;;;;;;;;;;;;;;;;;5108928;28;19939;-77
2022/05/04 10:00:36;;;;;;;;;;;;;;;;;;5104108;27;20374;-77
2022/05/04 10:03:02;;;;;;;;;;;;;;;;;;5113661;28;19927;-78
2022/05/04 10:05:28;;;;;;;;;;;;;;;;;;5111931;28;19960;-79
2022/05/04 10:07:54;;;;;;;;;;;;;;;;;;5088731;28;20386;-78
2022/05/04 10:10:21;;;;;;;;;;;;;;;;;;5109455;27;20244;-77
2022/05/04 10:12:47;;;;;;;;;;;;;;;;;;5110522;27;19922;-78
2022/05/04 10:15:13;;;;;;;;;;;;;;;;;;5112321;27;19923;-78
2022/05/04 10:17:39;;;;;;;;;;;;;;;;;;5111469;28;19924;-78
2022/05/04 10:20:06;;;;;;;;;;;;;;;;;;5110598;28;19920;-78
2022/05/04 10:22:32;;;;;;;;;;;;;;;;;;5094574;28;19916;-77
2022/05/04 10:24:58;;;;;;;;;;;;;;;;;;5105025;28;19968;-77
2022/05/04 10:27:27;;;;;;;;;;;;;;;;;;5109154;27;19919;-77
2022/05/04 10:32:38;;;;;;;;;;;;;;;;;;5106932;28;19941;-74
2022/05/04 10:35:04;;;;;;;;;;;;;;;;;;5111107;28;19916;-74
2022/05/04 10:37:30;;;;;;;;;;;;;;;;;;5113375;28;19944;-77
2022/05/04 10:39:56;;;;;;;;;;;;;;;;;;5111587;28;20306;-77
2022/05/04 10:42:22;;;;;;;;;;;;;;;;;;5109363;28;20012;-77
2022/05/04 10:44:49;;;;;;;;;;;;;;;;;;5109759;27;19927;-76
2022/05/04 10:47:15;;;;;;;;;;;;;;;;;;5111036;28;20007;-74
2022/05/04 10:49:41;;;;;;;;;;;;;;;;;;5105407;27;20468;-78
2022/05/04 10:52:07;;;;;;;;;;;;;;;;;;5109950;28;20274;-75
2022/05/04 10:54:33;;;;;;;;;;;;;;;;;;5106557;28;20263;-76
2022/05/04 10:56:59;;;;;;;;;;;;;;;;;;5105898;28;19915;-76
2022/05/04 10:59:25;;;;;;;;;;;;;;;;;;5105249;28;19998;-76
2022/05/04 11:01:51;;;;;;;;;;;;;;;;;;5104246;28;20248;-76
2022/05/04 11:04:17;;;;;;;;;;;;;;;;;;5100696;28;19955;-76
2022/05/04 11:06:43;;;;;;;;;;;;;;;;;;5103489;28;20322;-74
2022/05/04 11:09:10;;;;;;;;;;;;;;;;;;5104002;28;20416;-75
2022/05/04 11:11:36;;;;;;;;;;;;;;;;;;5088516;27;19950;-74
2022/05/04 11:14:02;;;;;;;;;;;;;;;;;;5127393;27;21304;-75
2022/05/04 11:16:28;;;;;;;;;;;;;;;;;;5124288;27;19915;-75
2022/05/04 11:18:54;;;;;;;;;;;;;;;;;;5126244;27;20002;-75
2022/05/04 11:21:20;;;;;;;;;;;;;;;;;;5105014;27;19994;-74
2022/05/04 11:23:46;;;;;;;;;;;;;;;;;;5105135;27;20382;-75
2022/05/04 11:26:12;;;;;;;;;;;;;;;;;;5123414;27;20376;-75
2022/05/04 11:28:38;;;;;;;;;;;;;;;;;;5104085;27;19915;-74
2022/05/04 11:31:04;;;;;;;;;;;;;;;;;;5120767;27;19924;-76
2022/05/04 11:33:30;;;;;;;;;;;;;;;;;;5109332;27;19915;-74
2022/05/04 11:35:56;;;;;;;;;;;;;;;;;;5088133;28;19922;-81
2022/05/04 11:38:22;;;;;;;;;;;;;;;;;;5111221;27;19919;-78
2022/05/04 11:40:49;;;;;;;;;;;;;;;;;;5089977;28;19915;-79
2022/05/04 11:43:14;;;;;;;;;;;;;;;;;;5111756;27;19915;-78
2022/05/04 11:45:40;;;;;;;;;;;;;;;;;;5111636;27;19946;-78
2022/05/04 11:48:06;;;;;;;;;;;;;;;;;;5095949;27;19983;-78
2022/05/04 11:50:32;;;;;;;;;;;;;;;;;;5094914;27;19922;-75
2022/05/04 11:52:58;;;;;;;;;;;;;;;;;;5091254;28;19965;-76
2022/05/04 11:55:24;;;;;;;;;;;;;;;;;;5101243;27;19915;-77
2022/05/04 11:57:51;;;;;;;;;;;;;;;;;;5111093;27;19922;-78
2022/05/04 12:00:17;;;;;;;;;;;;;;;;;;5094586;27;19948;-78
2022/05/04 12:02:44;;;;;;;;;;;;;;;;;;5087421;28;20006;-78
2022/05/04 12:05:10;;;;;;;;;;;;;;;;;;5105966;28;19916;-78
2022/05/04 12:07:35;;;;;;;;;;;;;;;;;;5088364;27;19926;-77
2022/05/04 12:10:01;;;;;;;;;;;;;;;;;;5112937;27;19915;-76
2022/05/04 12:12:27;;;;;;;;;;;;;;;;;;5110673;27;19961;-76
2022/05/04 12:14:53;;;;;;;;;;;;;;;;;;5112122;27;19926;-76
2022/05/04 12:17:19;;;;;;;;;;;;;;;;;;5128813;27;19962;-74
2022/05/04 12:19:45;;;;;;;;;;;;;;;;;;5100153;28;19927;-74
2022/05/04 12:22:11;;;;;;;;;;;;;;;;;;5110696;27;19915;-74
2022/05/04 12:24:37;;;;;;;;;;;;;;;;;;5111975;27;20388;-74
2022/05/04 12:27:03;;;;;;;;;;;;;;;;;;5106012;28;19977;-74
2022/05/04 12:34:58;;;;;;;;;;;;;;;;;;5096314;28;20370;-76
2022/05/04 12:37:24;;;;;;;;;;;;;;;;;;5104297;28;19916;-74
2022/05/04 12:39:50;;;;;;;;;;;;;;;;;;5093166;28;19916;-77
2022/05/04 12:42:17;;;;;;;;;;;;;;;;;;5106108;27;19919;-74
2022/05/04 12:44:43;;;;;;;;;;;;;;;;;;5111886;27;19927;-74
2022/05/04 12:47:09;;;;;;;;;;;;;;;;;;5112370;27;20235;-74
2022/05/04 12:49:35;;;;;;;;;;;;;;;;;;5114412;27;19926;-74
2022/05/04 12:52:01;;;;;;;;;;;;;;;;;;5098855;27;19923;-74
2022/05/04 12:54:27;;;;;;;;;;;;;;;;;;5116236;27;20002;-79
2022/05/04 12:56:54;;;;;;;;;;;;;;;;;;5097568;27;20267;-75
2022/05/04 12:59:20;;;;;;;;;;;;;;;;;;5098380;27;19915;-75
2022/05/04 13:01:46;;;;;;;;;;;;;;;;;;5114502;27;19938;-76
2022/05/04 13:04:14;;;;;;;;;;;;;;;;;;5112943;27;20011;-74
2022/05/04 13:06:40;;;;;;;;;;;;;;;;;;5112857;27;19926;-74
2022/05/04 13:09:06;;;;;;;;;;;;;;;;;;5133303;27;19942;-78
2022/05/04 13:11:32;;;;;;;;;;;;;;;;;;5114726;27;19962;-78
2022/05/04 13:13:58;;;;;;;;;;;;;;;;;;5113638;27;19915;-79
2022/05/04 13:16:24;;;;;;;;;;;;;;;;;;5098913;27;19922;-78
2022/05/04 13:18:51;;;;;;;;;;;;;;;;;;5115570;27;19923;-79
2022/05/04 13:21:18;;;;;;;;;;;;;;;;;;5097668;27;19922;-78
2022/05/04 13:23:44;;;;;;;;;;;;;;;;;;5094230;27;19927;-76
2022/05/04 13:26:12;;;;;;;;;;;;;;;;;;5097676;27;20266;-76
2022/05/04 13:28:38;;;;;;;;;;;;;;;;;;5113451;27;19915;-76
2022/05/04 13:31:04;;;;;;;;;;;;;;;;;;5098578;27;19969;-77
2022/05/04 13:33:31;;;;;;;;;;;;;;;;;;5111411;27;19927;-77
2022/05/04 13:35:57;;;;;;;;;;;;;;;;;;5098723;27;19966;-78
2022/05/04 13:38:23;;;;;;;;;;;;;;;;;;5097141;27;19967;-77
2022/05/04 13:40:49;;;;;;;;;;;;;;;;;;5115827;27;19919;-79
2022/05/04 13:43:16;;;;;;;;;;;;;;;;;;5112354;27;20281;-77
2022/05/04 13:45:42;;;;;;;;;;;;;;;;;;5115964;27;19915;-77
2022/05/04 13:48:08;;;;;;;;;;;;;;;;;;5097880;27;19931;-78
2022/05/04 13:53:19;;;;;;;;;;;;;;;;;;5112773;27;20308;-78
2022/05/04 13:55:45;;;;;;;;;;;;;;;;;;5098690;27;20002;-75
2022/05/04 13:58:11;;;;;;;;;;;;;;;;;;5129290;27;19973;-76
2022/05/04 14:00:37;;;;;;;;;;;;;;;;;;5134592;27;19958;-74
2022/05/04 14:03:03;;;;;;;;;;;;;;;;;;5115006;27;20365;-74
2022/05/04 14:05:29;;;;;;;;;;;;;;;;;;5134278;27;19960;-74
2022/05/04 14:07:55;;;;;;;;;;;;;;;;;;5096082;27;19919;-74
2022/05/04 14:10:21;;;;;;;;;;;;;;;;;;5113925;27;19916;-74
2022/05/04 14:12:47;;;;;;;;;;;;;;;;;;5131528;27;19922;-74
2022/05/04 14:15:13;;;;;;;;;;;;;;;;;;5134145;27;20001;-74
2022/05/04 14:17:39;;;;;;;;;;;;;;;;;;5116051;27;19926;-74
2022/05/04 14:20:05;;;;;;;;;;;;;;;;;;5133811;27;19915;-74
2022/05/04 14:22:31;;;;;;;;;;;;;;;;;;5132181;27;19985;-73
2022/05/04 14:24:57;;;;;;;;;;;;;;;;;;5112398;27;19927;-74
2022/05/04 14:27:23;;;;;;;;;;;;;;;;;;5111391;27;19964;-74
2022/05/04 14:29:49;;;;;;;;;;;;;;;;;;5115575;27;19916;-74
2022/05/04 14:32:15;;;;;;;;;;;;;;;;;;5115390;27;19922;-74
2022/05/04 14:34:41;;;;;;;;;;;;;;;;;;5113295;27;19919;-73
2022/05/04 14:37:07;;;;;;;;;;;;;;;;;;5133392;27;19922;-73
2022/05/04 14:39:33;;;;;;;;;;;;;;;;;;5133475;27;19996;-73
2022/05/04 14:41:59;;;;;;;;;;;;;;;;;;5131464;27;20311;-73
2022/05/04 14:44:25;;;;;;;;;;;;;;;;;;5133205;27;19915;-74
2022/05/04 14:46:51;;;;;;;;;;;;;;;;;;5113684;27;20365;-73
2022/05/04 14:49:17;;;;;;;;;;;;;;;;;;5130202;27;19980;-74
2022/05/04 14:51:43;;;;;;;;;;;;;;;;;;5128498;27;19915;-74
2022/05/04 14:54:09;;;;;;;;;;;;;;;;;;5129081;27;19980;-74
2022/05/04 14:56:35;;;;;;;;;;;;;;;;;;5108859;27;19959;-74
2022/05/04 14:59:01;;;;;;;;;;;;;;;;;;5109707;27;19922;-76
2022/05/04 15:01:27;;;;;;;;;;;;;;;;;;5110314;27;19945;-73
2022/05/04 15:06:38;;;;;;;;;;;;;;;;;;5131673;27;20007;-73
2022/05/04 15:09:04;;;;;;;;;;;;;;;;;;5129329;27;20334;-73
2022/05/04 15:11:30;;;;;;;;;;;;;;;;;;5110946;27;19916;-74
2022/05/04 15:13:56;;;;;;;;;;;;;;;;;;5110966;27;20265;-74
2022/05/04 15:16:24;;;;;;;;;;;;;;;;;;5128640;27;20030;-73
2022/05/04 15:18:50;;;;;;;;;;;;;;;;;;5132047;27;19919;-74
2022/05/04 15:21:19;;;;;;;;;;;;;;;;;;5127535;27;20277;-78
2022/05/04 15:23:45;;;;;;;;;;;;;;;;;;5111919;27;19919;-77
2022/05/04 15:26:11;;;;;;;;;;;;;;;;;;5127843;27;19916;-76
2022/05/04 15:28:37;;;;;;;;;;;;;;;;;;5094567;27;20190;-76
2022/05/04 15:31:03;;;;;;;;;;;;;;;;;;5108810;27;19973;-77
2022/05/04 15:33:29;;;;;;;;;;;;;;;;;;5094857;27;19940;-76
2022/05/04 15:35:55;;;;;;;;;;;;;;;;;;5130834;27;19915;-77
2022/05/04 15:38:21;;;;;;;;;;;;;;;;;;5129236;27;19923;-76
2022/05/04 15:40:47;;;;;;;;;;;;;;;;;;5111794;27;20399;-76
2022/05/04 15:43:13;;;;;;;;;;;;;;;;;;5094452;27;19931;-77
2022/05/04 15:45:39;;;;;;;;;;;;;;;;;;5105899;27;19971;-75
2022/05/04 15:48:05;;;;;;;;;;;;;;;;;;5109223;27;20361;-75
2022/05/04 15:50:31;;;;;;;;;;;;;;;;;;5128883;27;19916;-78
2022/05/04 15:52:57;;;;;;;;;;;;;;;;;;5112228;27;20350;-78
2022/05/04 15:55:23;;;;;;;;;;;;;;;;;;5091990;27;20281;-78
2022/05/04 15:57:49;;;;;;;;;;;;;;;;;;5094801;27;19915;-80
2022/05/04 16:00:15;;;;;;;;;;;;;;;;;;5111014;27;20327;-80
2022/05/04 16:05:26;;;;;;;;;;;;;;;;;;5112120;27;20361;-79
2022/05/04 16:07:52;;;;;;;;;;;;;;;;;;5092930;27;19915;-80
2022/05/04 16:10:18;;;;;;;;;;;;;;;;;;5111587;27;20255;-80
2022/05/04 16:12:44;;;;;;;;;;;;;;;;;;5111821;27;19915;-78
2022/05/04 16:15:10;;;;;;;;;;;;;;;;;;5106135;27;20281;-79
2022/05/04 16:23:06;;;;;;;;;;;;;;;;;;5110321;28;19920;-78
2022/05/04 16:25:32;;;;;;;;;;;;;;;;;;5108307;27;19919;-73
2022/05/04 16:27:58;;;;;;;;;;;;;;;;;;5110763;28;19923;-73
2022/05/04 16:30:23;;;;;;;;;;;;;;;;;;5108075;28;20405;-71
2022/05/04 16:32:49;;;;;;;;;;;;;;;;;;5086633;28;20329;-71
2022/05/04 16:35:15;;;;;;;;;;;;;;;;;;5125783;28;19938;-72
2022/05/04 16:37:41;;;;;;;;;;;;;;;;;;5123598;28;19961;-80
2022/05/04 16:40:07;;;;;;;;;;;;;;;;;;5093542;28;19915;-75
2022/05/04 16:42:36;;;;;;;;;;;;;;;;;;5084848;28;19932;-76
2022/05/04 16:45:02;;;;;;;;;;;;;;;;;;5107950;28;20005;-86
2022/05/04 16:47:28;;;;;;;;;;;;;;;;;;5088542;28;20390;-83
2022/05/04 16:49:54;;;;;;;;;;;;;;;;;;5106705;28;20373;-81
2022/05/04 16:52:20;;;;;;;;;;;;;;;;;;5087235;28;19916;-77
2022/05/04 16:54:46;;;;;;;;;;;;;;;;;;5104356;28;20308;-84
2022/05/04 16:57:12;;;;;;;;;;;;;;;;;;5089975;28;20360;-82
2022/05/04 16:59:38;;;;;;;;;;;;;;;;;;5108855;28;19915;-84
2022/05/04 17:02:04;;;;;;;;;;;;;;;;;;5110746;28;19967;-83
2022/05/04 17:04:30;;;;;;;;;;;;;;;;;;5091682;28;19915;-83
2022/05/04 17:06:56;;;;;;;;;;;;;;;;;;5088679;28;19919;-81
2022/05/04 17:09:22;;;;;;;;;;;;;;;;;;5090674;28;20239;-82
2022/05/04 17:11:48;;;;;;;;;;;;;;;;;;5108977;28;19920;-83
2022/05/04 17:14:14;;;;;;;;;;;;;;;;;;5106645;28;20002;-81
2022/05/04 17:16:40;;;;;;;;;;;;;;;;;;5104357;28;19920;-75
2022/05/04 17:19:06;;;;;;;;;;;;;;;;;;5103073;28;19942;-75
2022/05/04 17:21:32;;;;;;;;;;;;;;;;;;5100122;28;19915;-76
2022/05/04 17:23:58;;;;;;;;;;;;;;;;;;5101083;28;19931;-75
2022/05/04 17:26:24;;;;;;;;;;;;;;;;;;5122194;27;20372;-74